createdAt,value
2019-02-21T00:00:24.721Z,0.00
2019-02-21T00:01:24.483Z,0.00
2019-02-21T00:02:24.487Z,0.00
2019-02-21T00:03:24.460Z,0.00
2019-02-21T00:04:24.552Z,0.00
2019-02-21T00:05:24.976Z,0.00
2019-02-21T00:06:24.448Z,0.00
2019-02-21T00:07:24.445Z,0.00
2019-02-21T00:08:24.405Z,0.00
2019-02-21T00:09:24.394Z,0.00
2019-02-21T00:10:24.413Z,0.00
2019-02-21T00:11:24.403Z,0.00
2019-02-21T00:12:24.419Z,0.00
2019-02-21T00:13:24.366Z,0.00
2019-02-21T00:14:24.349Z,0.00
2019-02-21T00:15:24.335Z,0.00
2019-02-21T00:16:24.332Z,0.00
2019-02-21T00:17:24.336Z,0.00
2019-02-21T00:18:24.332Z,0.00
2019-02-21T00:19:24.305Z,0.00
2019-02-21T00:20:24.280Z,0.00
2019-02-21T00:21:24.270Z,0.00
2019-02-21T00:22:24.284Z,0.00
2019-02-21T00:23:24.257Z,0.00
2019-02-21T00:24:24.255Z,0.00
2019-02-21T00:25:24.240Z,0.00
2019-02-21T00:26:24.218Z,0.00
2019-02-21T00:27:24.228Z,0.00
2019-02-21T00:28:24.225Z,0.00
2019-02-21T00:29:24.226Z,0.00
2019-02-21T00:30:34.604Z,0.00
2019-02-21T00:31:24.168Z,0.00
2019-02-21T00:32:24.165Z,0.00
2019-02-21T00:33:24.187Z,0.00
2019-02-21T00:34:24.134Z,0.00
2019-02-21T00:35:24.121Z,0.00
2019-02-21T00:36:24.115Z,0.00
2019-02-21T00:37:24.119Z,0.00
2019-02-21T00:38:24.107Z,0.00
2019-02-21T00:39:24.088Z,0.00
2019-02-21T00:40:24.071Z,0.00
2019-02-21T00:41:24.066Z,0.00
2019-02-21T00:42:24.065Z,0.00
2019-02-21T00:43:24.046Z,0.00
2019-02-21T00:44:24.028Z,0.00
2019-02-21T00:45:24.016Z,0.00
2019-02-21T00:46:24.002Z,0.00
2019-02-21T00:47:23.993Z,0.00
2019-02-21T00:48:23.997Z,0.00
2019-02-21T00:49:23.993Z,0.00
2019-02-21T00:50:23.966Z,0.00
2019-02-21T00:51:23.955Z,0.00
2019-02-21T00:52:23.950Z,0.00
2019-02-21T00:53:24.048Z,0.00
2019-02-21T00:54:23.926Z,0.00
2019-02-21T00:55:23.923Z,0.00
2019-02-21T00:56:23.926Z,0.00
2019-02-21T00:57:23.992Z,0.00
2019-02-21T00:58:23.945Z,0.00
2019-02-21T00:59:23.882Z,0.00
2019-02-21T01:00:23.862Z,0.00
2019-02-21T01:01:23.853Z,0.00
2019-02-21T01:02:23.834Z,0.00
2019-02-21T01:03:23.841Z,0.00
2019-02-21T01:04:23.819Z,0.00
2019-02-21T01:05:23.826Z,0.00
2019-02-21T01:06:23.800Z,0.00
2019-02-21T01:07:23.786Z,0.00
2019-02-21T01:08:23.810Z,0.00
2019-02-21T01:09:23.787Z,0.00
2019-02-21T01:10:23.756Z,0.00
2019-02-21T01:11:23.748Z,0.00
2019-02-21T01:12:23.740Z,0.00
2019-02-21T01:13:23.746Z,0.00
2019-02-21T01:14:23.704Z,0.00
2019-02-21T01:15:23.706Z,0.00
2019-02-21T01:16:23.700Z,0.00
2019-02-21T01:17:23.689Z,0.00
2019-02-21T01:18:23.683Z,0.00
2019-02-21T01:19:23.699Z,0.00
2019-02-21T01:20:23.636Z,0.00
2019-02-21T01:21:23.638Z,0.00
2019-02-21T01:22:23.637Z,0.00
2019-02-21T01:23:23.633Z,0.00
2019-02-21T01:24:23.616Z,0.00
2019-02-21T01:25:23.588Z,0.00
2019-02-21T01:26:23.592Z,0.00
2019-02-21T01:27:23.567Z,0.00
2019-02-21T01:28:23.582Z,0.00
2019-02-21T01:29:23.552Z,0.00
2019-02-21T01:30:23.558Z,0.00
2019-02-21T01:31:23.571Z,0.00
2019-02-21T01:32:23.539Z,0.00
2019-02-21T01:33:23.514Z,0.00
2019-02-21T01:34:23.568Z,0.00
2019-02-21T01:35:23.481Z,0.00
2019-02-21T01:36:23.473Z,0.00
2019-02-21T01:37:23.471Z,0.00
2019-02-21T01:38:23.504Z,0.00
2019-02-21T01:39:23.439Z,0.00
2019-02-21T01:40:23.436Z,0.00
2019-02-21T01:41:23.421Z,0.00
2019-02-21T01:42:23.414Z,0.00
2019-02-21T01:43:23.420Z,0.00
2019-02-21T01:44:23.386Z,0.00
2019-02-21T01:45:23.398Z,0.00
2019-02-21T01:46:23.365Z,0.00
2019-02-21T01:47:23.363Z,0.00
2019-02-21T01:48:23.360Z,0.00
2019-02-21T01:49:23.403Z,0.00
2019-02-21T01:50:23.324Z,0.00
2019-02-21T01:51:23.320Z,0.00
2019-02-21T01:52:23.317Z,0.00
2019-02-21T01:53:23.305Z,0.00
2019-02-21T01:54:23.289Z,0.00
2019-02-21T01:55:23.296Z,0.00
2019-02-21T01:56:23.264Z,0.00
2019-02-21T01:57:23.251Z,0.00
2019-02-21T01:58:23.252Z,0.00
2019-02-21T01:59:23.228Z,0.00
2019-02-21T02:00:23.240Z,0.00
2019-02-21T02:01:23.221Z,0.00
2019-02-21T02:02:23.255Z,0.00
2019-02-21T02:03:23.233Z,0.00
2019-02-21T02:04:23.181Z,0.00
2019-02-21T02:05:23.170Z,0.00
2019-02-21T02:06:23.152Z,0.00
2019-02-21T02:07:23.139Z,0.00
2019-02-21T02:08:23.146Z,0.00
2019-02-21T02:09:23.140Z,0.00
2019-02-21T02:10:23.109Z,0.00
2019-02-21T02:11:23.110Z,0.00
2019-02-21T02:12:23.095Z,0.00
2019-02-21T02:13:24.835Z,0.00
2019-02-21T02:14:23.081Z,0.00
2019-02-21T02:15:23.052Z,0.00
2019-02-21T02:16:23.043Z,0.00
2019-02-21T02:17:23.040Z,0.00
2019-02-21T02:18:23.042Z,0.00
2019-02-21T02:19:23.022Z,0.00
2019-02-21T02:20:23.002Z,0.00
2019-02-21T02:21:23.006Z,0.00
2019-02-21T02:22:22.981Z,0.00
2019-02-21T02:23:22.970Z,0.00
2019-02-21T02:24:23.005Z,0.00
2019-02-21T02:25:23.042Z,0.00
2019-02-21T02:26:22.942Z,0.00
2019-02-21T02:27:22.926Z,0.00
2019-02-21T02:28:22.926Z,0.00
2019-02-21T02:29:22.925Z,0.00
2019-02-21T02:30:22.907Z,0.00
2019-02-21T02:31:23.784Z,0.00
2019-02-21T02:32:22.897Z,0.00
2019-02-21T02:33:22.883Z,0.00
2019-02-21T02:34:22.875Z,0.00
2019-02-21T02:35:22.874Z,0.00
2019-02-21T02:36:22.843Z,0.00
2019-02-21T02:37:22.821Z,0.00
2019-02-21T02:38:22.813Z,0.00
2019-02-21T02:39:22.817Z,0.00
2019-02-21T02:40:22.803Z,0.00
2019-02-21T02:41:22.783Z,0.00
2019-02-21T02:42:22.779Z,0.00
2019-02-21T02:43:22.760Z,0.00
2019-02-21T02:44:22.762Z,0.00
2019-02-21T02:45:22.741Z,0.00
2019-02-21T02:46:22.734Z,0.00
2019-02-21T02:47:22.732Z,0.00
2019-02-21T02:48:22.704Z,0.00
2019-02-21T02:49:22.723Z,0.00
2019-02-21T02:50:22.686Z,0.00
2019-02-21T02:51:22.670Z,0.00
2019-02-21T02:52:22.663Z,0.00
2019-02-21T02:53:22.661Z,0.00
2019-02-21T02:54:22.661Z,0.00
2019-02-21T02:55:22.705Z,0.00
2019-02-21T02:56:22.623Z,0.00
2019-02-21T02:57:22.603Z,0.00
2019-02-21T02:58:22.604Z,0.00
2019-02-21T02:59:22.602Z,0.00
2019-02-21T03:00:22.597Z,0.00
2019-02-21T03:01:34.047Z,0.00
2019-02-21T03:02:22.578Z,0.00
2019-02-21T03:03:22.548Z,0.00
2019-02-21T03:04:22.623Z,0.00
2019-02-21T03:05:22.524Z,0.00
2019-02-21T03:06:22.515Z,0.00
2019-02-21T03:07:22.498Z,0.00
2019-02-21T03:08:22.492Z,0.00
2019-02-21T03:09:22.493Z,0.00
2019-02-21T03:10:22.470Z,0.00
2019-02-21T03:11:22.467Z,0.00
2019-02-21T03:12:22.446Z,0.00
2019-02-21T03:13:22.437Z,0.00
2019-02-21T03:14:22.447Z,0.00
2019-02-21T03:15:22.434Z,0.00
2019-02-21T03:16:22.406Z,0.00
2019-02-21T03:17:22.481Z,0.00
2019-02-21T03:18:22.399Z,0.00
2019-02-21T03:19:22.404Z,0.00
2019-02-21T03:20:22.360Z,0.00
2019-02-21T03:21:22.363Z,0.00
2019-02-21T03:22:22.347Z,0.00
2019-02-21T03:23:22.355Z,0.00
2019-02-21T03:24:22.502Z,0.00
2019-02-21T03:25:22.332Z,0.00
2019-02-21T03:26:22.321Z,0.00
2019-02-21T03:27:22.334Z,0.00
2019-02-21T03:28:22.327Z,0.00
2019-02-21T03:29:22.282Z,0.00
2019-02-21T03:30:22.284Z,0.00
2019-02-21T03:31:22.274Z,0.00
2019-02-21T03:32:22.266Z,0.00
2019-02-21T03:33:22.229Z,0.00
2019-02-21T03:34:22.254Z,0.00
2019-02-21T03:35:22.218Z,0.00
2019-02-21T03:36:22.195Z,0.00
2019-02-21T03:37:22.187Z,0.00
2019-02-21T03:38:22.205Z,0.00
2019-02-21T03:39:22.185Z,0.00
2019-02-21T03:40:22.170Z,0.00
2019-02-21T03:41:22.144Z,0.00
2019-02-21T03:42:22.245Z,0.00
2019-02-21T03:43:22.126Z,0.00
2019-02-21T03:44:22.122Z,0.00
2019-02-21T03:45:22.589Z,0.00
2019-02-21T03:46:22.097Z,0.00
2019-02-21T03:47:22.075Z,0.00
2019-02-21T03:48:22.068Z,0.00
2019-02-21T03:49:22.076Z,0.00
2019-02-21T03:50:22.048Z,0.00
2019-02-21T03:51:22.035Z,0.00
2019-02-21T03:52:22.024Z,0.00
2019-02-21T03:53:22.013Z,0.00
2019-02-21T03:54:22.024Z,0.00
2019-02-21T03:55:22.575Z,0.00
2019-02-21T03:56:21.987Z,0.00
2019-02-21T03:57:22.000Z,0.00
2019-02-21T03:58:21.980Z,0.00
2019-02-21T03:59:21.979Z,0.00
2019-02-21T04:00:23.359Z,0.00
2019-02-21T04:01:21.938Z,0.00
2019-02-21T04:02:21.915Z,0.00
2019-02-21T04:03:21.918Z,0.00
2019-02-21T04:04:21.897Z,0.00
2019-02-21T04:05:21.903Z,0.00
2019-02-21T04:06:21.878Z,0.00
2019-02-21T04:07:22.195Z,0.00
2019-02-21T04:08:21.852Z,0.00
2019-02-21T04:09:21.852Z,0.00
2019-02-21T04:10:21.869Z,0.00
2019-02-21T04:11:21.844Z,0.00
2019-02-21T04:12:21.803Z,0.00
2019-02-21T04:13:21.813Z,0.00
2019-02-21T04:14:21.792Z,0.00
2019-02-21T04:15:21.844Z,0.00
2019-02-21T04:16:21.776Z,0.00
2019-02-21T04:17:21.760Z,0.00
2019-02-21T04:18:21.750Z,0.00
2019-02-21T04:19:21.733Z,0.00
2019-02-21T04:20:21.742Z,0.00
2019-02-21T04:21:21.723Z,0.00
2019-02-21T04:22:21.730Z,0.00
2019-02-21T04:23:21.700Z,0.00
2019-02-21T04:24:21.697Z,0.00
2019-02-21T04:25:21.688Z,0.00
2019-02-21T04:26:21.676Z,0.00
2019-02-21T04:27:21.660Z,0.00
2019-02-21T04:28:21.638Z,0.00
2019-02-21T04:29:21.628Z,0.00
2019-02-21T04:30:21.628Z,0.00
2019-02-21T04:31:21.615Z,0.00
2019-02-21T04:32:21.613Z,0.00
2019-02-21T04:33:21.603Z,0.00
2019-02-21T04:34:21.573Z,0.00
2019-02-21T04:35:21.572Z,0.00
2019-02-21T04:36:23.493Z,0.00
2019-02-21T04:37:21.555Z,0.00
2019-02-21T04:38:21.535Z,0.00
2019-02-21T04:39:21.558Z,0.00
2019-02-21T04:40:21.520Z,0.00
2019-02-21T04:41:21.498Z,0.00
2019-02-21T04:42:21.488Z,0.00
2019-02-21T04:43:21.473Z,0.00
2019-02-21T04:44:21.466Z,0.00
2019-02-21T04:45:21.479Z,0.00
2019-02-21T04:46:21.477Z,0.00
2019-02-21T04:47:21.445Z,0.00
2019-02-21T04:48:21.456Z,0.00
2019-02-21T04:49:21.436Z,0.00
2019-02-21T04:50:21.423Z,0.00
2019-02-21T04:51:21.426Z,0.00
2019-02-21T04:52:21.386Z,0.00
2019-02-21T04:53:21.376Z,0.00
2019-02-21T04:54:25.370Z,0.00
2019-02-21T04:55:21.379Z,0.00
2019-02-21T04:56:21.336Z,0.00
2019-02-21T04:57:21.348Z,0.00
2019-02-21T04:58:21.370Z,0.00
2019-02-21T04:59:21.309Z,0.00
2019-02-21T05:00:21.341Z,0.00
2019-02-21T05:01:21.299Z,0.00
2019-02-21T05:02:29.277Z,0.00
2019-02-21T05:03:21.274Z,0.00
2019-02-21T05:04:21.258Z,0.00
2019-02-21T05:05:21.280Z,0.00
2019-02-21T05:06:21.241Z,0.00
2019-02-21T05:07:21.375Z,0.00
2019-02-21T05:08:21.208Z,0.00
2019-02-21T05:09:21.213Z,0.00
2019-02-21T05:10:21.218Z,0.00
2019-02-21T05:11:21.196Z,0.00
2019-02-21T05:12:21.171Z,0.00
2019-02-21T05:13:21.159Z,0.00
2019-02-21T05:14:21.160Z,0.00
2019-02-21T05:15:21.160Z,0.00
2019-02-21T05:16:21.134Z,0.00
2019-02-21T05:17:21.115Z,0.00
2019-02-21T05:18:21.115Z,0.00
2019-02-21T05:19:21.104Z,0.00
2019-02-21T05:20:21.102Z,0.00
2019-02-21T05:21:21.079Z,0.00
2019-02-21T05:22:21.060Z,0.00
2019-02-21T05:23:21.066Z,0.00
2019-02-21T05:24:21.039Z,0.00
2019-02-21T05:25:21.042Z,0.00
2019-02-21T05:26:21.017Z,0.00
2019-02-21T05:27:21.009Z,0.00
2019-02-21T05:28:21.002Z,0.00
2019-02-21T05:29:20.994Z,0.00
2019-02-21T05:30:20.983Z,0.00
2019-02-21T05:31:20.967Z,0.00
2019-02-21T05:32:20.959Z,0.00
2019-02-21T05:33:20.954Z,0.00
2019-02-21T05:34:20.938Z,0.00
2019-02-21T05:35:20.933Z,0.00
2019-02-21T05:36:20.940Z,0.00
2019-02-21T05:37:20.904Z,0.00
2019-02-21T05:38:20.892Z,0.00
2019-02-21T05:39:20.896Z,0.00
2019-02-21T05:40:20.865Z,0.00
2019-02-21T05:41:20.991Z,0.00
2019-02-21T05:42:20.856Z,0.00
2019-02-21T05:43:20.840Z,0.00
2019-02-21T05:44:20.846Z,0.00
2019-02-21T05:45:20.827Z,0.00
2019-02-21T05:46:20.825Z,0.00
2019-02-21T05:47:20.835Z,0.00
2019-02-21T05:48:20.780Z,0.00
2019-02-21T05:49:20.786Z,0.00
2019-02-21T05:50:20.770Z,0.00
2019-02-21T05:51:20.774Z,0.00
2019-02-21T05:52:20.748Z,0.00
2019-02-21T05:53:20.730Z,0.00
2019-02-21T05:54:20.715Z,0.00
2019-02-21T05:55:20.722Z,0.00
2019-02-21T05:56:20.715Z,0.00
2019-02-21T05:57:20.720Z,0.00
2019-02-21T05:58:20.749Z,0.00
2019-02-21T05:59:20.679Z,0.00
2019-02-21T06:00:20.795Z,0.00
2019-02-21T06:01:20.668Z,0.00
2019-02-21T06:02:20.654Z,0.00
2019-02-21T06:03:20.635Z,0.00
2019-02-21T06:04:20.671Z,0.00
2019-02-21T06:05:20.617Z,0.00
2019-02-21T06:06:20.608Z,0.00
2019-02-21T06:07:20.593Z,0.00
2019-02-21T06:08:23.044Z,0.00
2019-02-21T06:09:20.581Z,0.00
2019-02-21T06:10:20.627Z,0.00
2019-02-21T06:11:20.562Z,0.00
2019-02-21T06:12:32.848Z,0.00
2019-02-21T06:13:20.520Z,0.00
2019-02-21T06:14:20.519Z,0.00
2019-02-21T06:15:20.615Z,68.00
2019-02-21T06:16:20.497Z,84.00
2019-02-21T06:17:20.476Z,88.00
2019-02-21T06:18:20.467Z,84.00
2019-02-21T06:19:20.464Z,84.00
2019-02-21T06:20:20.460Z,84.00
2019-02-21T06:21:20.472Z,84.00
2019-02-21T06:22:20.452Z,84.00
2019-02-21T06:23:20.417Z,84.00
2019-02-21T06:24:20.408Z,84.00
2019-02-21T06:25:20.460Z,84.00
2019-02-21T06:26:20.422Z,84.00
2019-02-21T06:27:20.475Z,84.00
2019-02-21T06:28:20.361Z,84.00
2019-02-21T06:29:22.447Z,84.00
2019-02-21T06:30:20.402Z,84.00
2019-02-21T06:31:20.347Z,84.00
2019-02-21T06:32:20.323Z,88.00
2019-02-21T06:33:20.309Z,84.00
2019-02-21T06:34:20.291Z,84.00
2019-02-21T06:35:20.305Z,84.00
2019-02-21T06:36:20.295Z,84.00
2019-02-21T06:37:20.265Z,84.00
2019-02-21T06:38:20.266Z,84.00
2019-02-21T06:39:20.441Z,84.00
2019-02-21T06:40:20.256Z,84.00
2019-02-21T06:41:20.349Z,84.00
2019-02-21T06:42:20.213Z,88.00
2019-02-21T06:43:20.209Z,88.00
2019-02-21T06:44:20.227Z,84.00
2019-02-21T06:45:20.206Z,84.00
2019-02-21T06:46:20.182Z,84.00
2019-02-21T06:47:20.165Z,88.00
2019-02-21T06:48:20.181Z,88.00
2019-02-21T06:49:20.145Z,84.00
2019-02-21T06:50:26.692Z,88.00
2019-02-21T06:51:20.140Z,88.00
2019-02-21T06:52:20.113Z,88.00
2019-02-21T06:53:20.118Z,88.00
2019-02-21T06:54:22.470Z,88.00
2019-02-21T06:55:20.685Z,88.00
2019-02-21T06:56:20.071Z,92.00
2019-02-21T06:57:20.070Z,88.00
2019-02-21T06:58:20.042Z,92.00
2019-02-21T06:59:20.064Z,92.00
2019-02-21T07:00:20.049Z,92.00
2019-02-21T07:01:28.899Z,92.00
2019-02-21T07:02:20.048Z,92.00
2019-02-21T07:03:19.982Z,92.00
2019-02-21T07:04:19.974Z,92.00
2019-02-21T07:05:19.987Z,92.00
2019-02-21T07:06:31.082Z,92.00
2019-02-21T07:07:19.957Z,100.00
2019-02-21T07:08:19.974Z,96.00
2019-02-21T07:09:19.968Z,96.00
2019-02-21T07:10:19.920Z,96.00
2019-02-21T07:11:19.905Z,96.00
2019-02-21T07:12:19.917Z,96.00
2019-02-21T07:13:26.527Z,96.00
2019-02-21T07:14:19.882Z,96.00
2019-02-21T07:15:19.875Z,96.00
2019-02-21T07:16:19.846Z,100.00
2019-02-21T07:17:19.850Z,100.00
2019-02-21T07:18:19.830Z,100.00
2019-02-21T07:19:20.811Z,96.00
2019-02-21T07:20:19.839Z,96.00
2019-02-21T07:21:19.809Z,96.00
2019-02-21T07:22:22.363Z,96.00
2019-02-21T07:23:19.801Z,96.00
2019-02-21T07:24:19.847Z,96.00
2019-02-21T07:25:19.749Z,96.00
2019-02-21T07:26:19.755Z,92.00
2019-02-21T07:27:19.770Z,96.00
2019-02-21T07:28:19.713Z,92.00
2019-02-21T07:29:19.764Z,96.00
2019-02-21T07:30:23.094Z,92.00
2019-02-21T07:31:28.277Z,96.00
2019-02-21T07:32:19.690Z,96.00
2019-02-21T07:33:28.355Z,96.00
2019-02-21T07:34:19.697Z,96.00
2019-02-21T07:35:19.706Z,96.00
2019-02-21T07:36:19.643Z,100.00
2019-02-21T07:37:19.649Z,104.00
2019-02-21T07:38:19.611Z,104.00
2019-02-21T07:39:20.803Z,108.00
2019-02-21T07:40:20.434Z,108.00
2019-02-21T07:41:19.661Z,108.00
2019-02-21T07:42:19.585Z,104.00
2019-02-21T07:43:20.583Z,108.00
2019-02-21T07:44:19.559Z,108.00
2019-02-21T07:45:19.656Z,108.00
2019-02-21T07:46:19.527Z,104.00
2019-02-21T07:47:19.540Z,104.00
2019-02-21T07:48:19.562Z,104.00
2019-02-21T07:49:19.520Z,104.00
2019-02-21T07:50:19.484Z,100.00
2019-02-21T07:51:19.507Z,100.00
2019-02-21T07:52:19.462Z,100.00
2019-02-21T07:53:19.465Z,100.00
2019-02-21T07:54:19.437Z,100.00
2019-02-21T07:55:20.055Z,100.00
2019-02-21T07:56:19.426Z,100.00
2019-02-21T07:57:19.445Z,100.00
2019-02-21T07:58:19.412Z,100.00
2019-02-21T07:59:19.487Z,100.00
2019-02-21T08:00:20.137Z,100.00
2019-02-21T08:01:19.398Z,100.00
2019-02-21T08:02:21.019Z,104.00
2019-02-21T08:03:29.807Z,104.00
2019-02-21T08:04:19.327Z,104.00
2019-02-21T08:05:19.344Z,108.00
2019-02-21T08:06:20.137Z,112.00
2019-02-21T08:07:19.441Z,112.00
2019-02-21T08:08:20.996Z,116.00
2019-02-21T08:09:19.296Z,120.00
2019-02-21T08:10:21.106Z,120.00
2019-02-21T08:11:19.246Z,124.00
2019-02-21T08:12:19.285Z,124.00
2019-02-21T08:13:19.264Z,128.00
2019-02-21T08:14:19.250Z,136.00
2019-02-21T08:15:19.222Z,136.00
2019-02-21T08:16:19.201Z,136.00
2019-02-21T08:17:19.216Z,140.00
2019-02-21T08:18:19.191Z,144.00
2019-02-21T08:19:19.188Z,148.00
2019-02-21T08:20:19.157Z,148.00
2019-02-21T08:21:19.182Z,148.00
2019-02-21T08:22:19.372Z,148.00
2019-02-21T08:23:19.249Z,148.00
2019-02-21T08:24:19.152Z,144.00
2019-02-21T08:25:19.501Z,132.00
2019-02-21T08:26:20.122Z,124.00
2019-02-21T08:27:19.136Z,120.00
2019-02-21T08:28:19.075Z,120.00
2019-02-21T08:29:20.738Z,120.00
2019-02-21T08:30:20.867Z,124.00
2019-02-21T08:31:19.062Z,132.00
2019-02-21T08:32:19.069Z,140.00
2019-02-21T08:33:19.037Z,140.00
2019-02-21T08:34:19.011Z,140.00
2019-02-21T08:35:19.029Z,124.00
2019-02-21T08:36:19.015Z,152.00
2019-02-21T08:37:19.005Z,164.00
2019-02-21T08:38:18.981Z,172.00
2019-02-21T08:39:19.126Z,164.00
2019-02-21T08:40:19.044Z,148.00
2019-02-21T08:41:18.965Z,136.00
2019-02-21T08:42:18.942Z,128.00
2019-02-21T08:43:19.219Z,120.00
2019-02-21T08:44:19.026Z,116.00
2019-02-21T08:45:18.894Z,112.00
2019-02-21T08:46:18.891Z,108.00
2019-02-21T08:47:18.868Z,108.00
2019-02-21T08:48:20.041Z,112.00
2019-02-21T08:49:18.861Z,116.00
2019-02-21T08:50:21.992Z,120.00
2019-02-21T08:51:18.850Z,128.00
2019-02-21T08:52:18.824Z,128.00
2019-02-21T08:53:18.834Z,128.00
2019-02-21T08:54:18.828Z,124.00
2019-02-21T08:55:18.794Z,128.00
2019-02-21T08:56:18.789Z,132.00
2019-02-21T08:57:21.405Z,136.00
2019-02-21T08:58:18.784Z,136.00
2019-02-21T08:59:18.856Z,136.00
2019-02-21T09:00:18.747Z,136.00
2019-02-21T09:01:18.730Z,140.00
2019-02-21T09:02:18.714Z,144.00
2019-02-21T09:03:18.719Z,144.00
2019-02-21T09:04:27.323Z,144.00
2019-02-21T09:05:18.769Z,144.00
2019-02-21T09:06:19.359Z,152.00
2019-02-21T09:07:18.691Z,156.00
2019-02-21T09:08:18.654Z,152.00
2019-02-21T09:09:18.653Z,148.00
2019-02-21T09:10:19.648Z,160.00
2019-02-21T09:11:19.802Z,168.00
2019-02-21T09:12:18.611Z,180.00
2019-02-21T09:13:18.609Z,184.00
2019-02-21T09:14:18.606Z,192.00
2019-02-21T09:15:18.564Z,200.00
2019-02-21T09:16:18.572Z,208.00
2019-02-21T09:17:18.558Z,208.00
2019-02-21T09:18:22.444Z,212.00
2019-02-21T09:19:18.556Z,220.00
2019-02-21T09:20:18.535Z,220.00
2019-02-21T09:21:18.518Z,220.00
2019-02-21T09:22:18.532Z,212.00
2019-02-21T09:23:18.533Z,208.00
2019-02-21T09:24:35.086Z,204.00
2019-02-21T09:25:18.486Z,204.00
2019-02-21T09:26:18.507Z,200.00
2019-02-21T09:27:18.448Z,204.00
2019-02-21T09:28:18.715Z,200.00
2019-02-21T09:29:18.445Z,200.00
2019-02-21T09:30:18.406Z,200.00
2019-02-21T09:31:18.507Z,200.00
2019-02-21T09:32:18.407Z,204.00
2019-02-21T09:33:21.201Z,208.00
2019-02-21T09:34:21.182Z,216.00
2019-02-21T09:35:18.373Z,224.00
2019-02-21T09:36:18.346Z,232.00
2019-02-21T09:37:18.352Z,236.00
2019-02-21T09:38:18.435Z,240.00
2019-02-21T09:39:18.312Z,244.00
2019-02-21T09:40:18.313Z,236.00
2019-02-21T09:41:18.302Z,232.00
2019-02-21T09:42:18.356Z,228.00
2019-02-21T09:43:18.299Z,228.00
2019-02-21T09:44:18.342Z,224.00
2019-02-21T09:45:18.323Z,224.00
2019-02-21T09:46:18.245Z,228.00
2019-02-21T09:47:18.259Z,228.00
2019-02-21T09:48:18.292Z,232.00
2019-02-21T09:49:18.215Z,236.00
2019-02-21T09:50:18.216Z,236.00
2019-02-21T09:51:18.445Z,244.00
2019-02-21T09:52:18.191Z,248.00
2019-02-21T09:53:18.262Z,256.00
2019-02-21T09:54:19.113Z,264.00
2019-02-21T09:55:18.202Z,276.00
2019-02-21T09:56:29.484Z,276.00
2019-02-21T09:57:18.232Z,284.00
2019-02-21T09:58:18.138Z,264.00
2019-02-21T09:59:18.112Z,260.00
2019-02-21T10:00:18.111Z,240.00
2019-02-21T10:01:18.093Z,232.00
2019-02-21T10:02:18.073Z,224.00
2019-02-21T10:03:18.086Z,224.00
2019-02-21T10:04:18.223Z,216.00
2019-02-21T10:05:18.073Z,216.00
2019-02-21T10:06:18.049Z,216.00
2019-02-21T10:07:18.088Z,212.00
2019-02-21T10:08:18.100Z,212.00
2019-02-21T10:09:18.010Z,212.00
2019-02-21T10:10:18.082Z,208.00
2019-02-21T10:11:18.111Z,212.00
2019-02-21T10:12:18.003Z,216.00
2019-02-21T10:13:17.972Z,220.00
2019-02-21T10:14:17.974Z,224.00
2019-02-21T10:15:18.941Z,228.00
2019-02-21T10:16:17.982Z,228.00
2019-02-21T10:17:17.926Z,232.00
2019-02-21T10:18:17.910Z,228.00
2019-02-21T10:19:17.951Z,220.00
2019-02-21T10:20:17.892Z,212.00
2019-02-21T10:21:17.877Z,200.00
2019-02-21T10:22:17.889Z,192.00
2019-02-21T10:23:18.881Z,192.00
2019-02-21T10:24:17.905Z,196.00
2019-02-21T10:25:17.840Z,204.00
2019-02-21T10:26:17.877Z,204.00
2019-02-21T10:27:17.840Z,192.00
2019-02-21T10:28:17.827Z,184.00
2019-02-21T10:29:18.068Z,176.00
2019-02-21T10:30:17.800Z,172.00
2019-02-21T10:31:17.784Z,172.00
2019-02-21T10:32:17.757Z,176.00
2019-02-21T10:33:17.752Z,184.00
2019-02-21T10:34:17.808Z,192.00
2019-02-21T10:35:17.843Z,212.00
2019-02-21T10:36:17.735Z,232.00
2019-02-21T10:37:18.091Z,256.00
2019-02-21T10:38:18.685Z,284.00
2019-02-21T10:39:17.705Z,224.00
2019-02-21T10:40:17.685Z,296.00
2019-02-21T10:41:17.682Z,292.00
2019-02-21T10:42:17.715Z,292.00
2019-02-21T10:43:17.648Z,288.00
2019-02-21T10:44:17.641Z,276.00
2019-02-21T10:45:17.634Z,256.00
2019-02-21T10:46:17.639Z,244.00
2019-02-21T10:47:17.609Z,228.00
2019-02-21T10:48:17.586Z,220.00
2019-02-21T10:49:17.590Z,212.00
2019-02-21T10:50:17.608Z,204.00
2019-02-21T10:51:17.561Z,196.00
2019-02-21T10:52:17.616Z,188.00
2019-02-21T10:53:17.555Z,188.00
2019-02-21T10:54:17.566Z,180.00
2019-02-21T10:55:17.518Z,176.00
2019-02-21T10:56:17.589Z,172.00
2019-02-21T10:57:17.492Z,168.00
2019-02-21T10:58:17.495Z,168.00
2019-02-21T10:59:17.550Z,172.00
2019-02-21T11:00:17.535Z,172.00
2019-02-21T11:01:17.437Z,176.00
2019-02-21T11:02:17.448Z,176.00
2019-02-21T11:03:17.453Z,180.00
2019-02-21T11:04:17.440Z,184.00
2019-02-21T11:05:17.404Z,188.00
2019-02-21T11:06:17.419Z,192.00
2019-02-21T11:07:17.387Z,204.00
2019-02-21T11:08:17.385Z,220.00
2019-02-21T11:09:17.371Z,248.00
2019-02-21T11:10:19.161Z,264.00
2019-02-21T11:11:17.388Z,268.00
2019-02-21T11:12:17.340Z,296.00
2019-02-21T11:13:17.320Z,288.00
2019-02-21T11:14:17.407Z,276.00
2019-02-21T11:15:18.295Z,288.00
2019-02-21T11:16:17.297Z,308.00
2019-02-21T11:17:18.028Z,332.00
2019-02-21T11:18:17.261Z,272.00
2019-02-21T11:19:17.264Z,280.00
2019-02-21T11:20:17.249Z,276.00
2019-02-21T11:21:17.230Z,284.00
2019-02-21T11:22:17.408Z,280.00
2019-02-21T11:23:17.207Z,272.00
2019-02-21T11:24:17.238Z,264.00
2019-02-21T11:25:17.206Z,252.00
2019-02-21T11:26:17.195Z,228.00
2019-02-21T11:27:17.168Z,180.00
2019-02-21T11:28:17.154Z,180.00
2019-02-21T11:29:17.168Z,188.00
2019-02-21T11:30:17.148Z,200.00
2019-02-21T11:31:17.152Z,216.00
2019-02-21T11:32:17.117Z,188.00
2019-02-21T11:33:17.109Z,192.00
2019-02-21T11:34:17.100Z,168.00
2019-02-21T11:35:17.096Z,144.00
2019-02-21T11:36:17.106Z,128.00
2019-02-21T11:37:17.461Z,124.00
2019-02-21T11:38:17.070Z,116.00
2019-02-21T11:39:17.062Z,108.00
2019-02-21T11:40:17.114Z,112.00
2019-02-21T11:41:17.027Z,116.00
2019-02-21T11:42:17.021Z,124.00
2019-02-21T11:43:17.014Z,128.00
2019-02-21T11:44:16.995Z,140.00
2019-02-21T11:45:16.996Z,140.00
2019-02-21T11:46:16.969Z,140.00
2019-02-21T11:47:16.965Z,132.00
2019-02-21T11:48:16.954Z,128.00
2019-02-21T11:49:16.951Z,128.00
2019-02-21T11:50:16.945Z,128.00
2019-02-21T11:51:16.913Z,120.00
2019-02-21T11:52:16.918Z,116.00
2019-02-21T11:53:17.094Z,116.00
2019-02-21T11:54:26.545Z,132.00
2019-02-21T11:55:16.878Z,140.00
2019-02-21T11:56:16.865Z,144.00
2019-02-21T11:57:16.854Z,148.00
2019-02-21T11:58:16.849Z,148.00
2019-02-21T11:59:16.841Z,160.00
2019-02-21T12:00:17.584Z,204.00
2019-02-21T12:01:16.900Z,184.00
2019-02-21T12:02:16.799Z,196.00
2019-02-21T12:03:16.791Z,196.00
2019-02-21T12:04:16.847Z,224.00
2019-02-21T12:05:17.754Z,220.00
2019-02-21T12:06:16.808Z,212.00
2019-02-21T12:07:16.865Z,224.00
2019-02-21T12:08:16.731Z,188.00
2019-02-21T12:09:16.719Z,220.00
2019-02-21T12:10:16.734Z,236.00
2019-02-21T12:11:16.703Z,244.00
2019-02-21T12:12:16.699Z,252.00
2019-02-21T12:13:16.685Z,252.00
2019-02-21T12:14:16.748Z,232.00
2019-02-21T12:15:16.718Z,244.00
2019-02-21T12:16:16.653Z,244.00
2019-02-21T12:17:16.662Z,264.00
2019-02-21T12:18:16.648Z,276.00
2019-02-21T12:19:16.605Z,280.00
2019-02-21T12:20:16.612Z,284.00
2019-02-21T12:21:16.609Z,296.00
2019-02-21T12:22:16.580Z,228.00
2019-02-21T12:23:17.739Z,252.00
2019-02-21T12:24:16.569Z,312.00
2019-02-21T12:25:16.563Z,300.00
2019-02-21T12:26:16.636Z,304.00
2019-02-21T12:27:16.541Z,300.00
2019-02-21T12:28:16.518Z,296.00
2019-02-21T12:29:16.526Z,284.00
2019-02-21T12:30:16.519Z,276.00
2019-02-21T12:31:16.504Z,268.00
2019-02-21T12:32:16.488Z,252.00
2019-02-21T12:33:16.462Z,232.00
2019-02-21T12:34:16.474Z,220.00
2019-02-21T12:35:16.483Z,212.00
2019-02-21T12:36:16.489Z,208.00
2019-02-21T12:37:16.415Z,192.00
2019-02-21T12:38:16.419Z,184.00
2019-02-21T12:39:16.412Z,184.00
2019-02-21T12:40:16.487Z,172.00
2019-02-21T12:41:16.398Z,168.00
2019-02-21T12:42:16.367Z,168.00
2019-02-21T12:43:16.357Z,168.00
2019-02-21T12:44:16.344Z,164.00
2019-02-21T12:45:16.350Z,168.00
2019-02-21T12:46:16.354Z,180.00
2019-02-21T12:47:16.322Z,200.00
2019-02-21T12:48:16.306Z,216.00
2019-02-21T12:49:17.269Z,232.00
2019-02-21T12:50:16.298Z,244.00
2019-02-21T12:51:16.428Z,240.00
2019-02-21T12:52:16.309Z,244.00
2019-02-21T12:53:16.297Z,264.00
2019-02-21T12:54:16.261Z,232.00